createdAt,value
2022-11-20T00:00:36.520Z,4.87
2022-11-20T00:05:41.355Z,6.37
2022-11-20T00:10:44.654Z,5.93
2022-11-20T00:15:47.966Z,5.80
2022-11-20T00:20:52.570Z,5.63
2022-11-20T00:25:55.845Z,5.27
2022-11-20T00:31:04.392Z,5.47
2022-11-20T00:36:11.673Z,6.27
2022-11-20T00:41:17.158Z,5.50
2022-11-20T00:46:21.997Z,5.77
2022-11-20T00:51:28.907Z,5.97
2022-11-20T00:56:32.222Z,5.70
2022-11-20T01:01:35.526Z,5.60
2022-11-20T01:06:41.778Z,5.50
2022-11-20T01:11:46.362Z,5.63
2022-11-20T01:16:51.568Z,5.40
2022-11-20T01:21:56.601Z,5.77
2022-11-20T01:27:00.101Z,5.10
2022-11-20T01:32:03.382Z,5.20
2022-11-20T01:37:08.092Z,5.03
2022-11-20T01:42:28.644Z,6.13
2022-11-20T01:47:36.624Z,5.10
2022-11-20T01:52:45.797Z,5.50
2022-11-20T01:57:50.626Z,4.97
2022-11-20T02:02:59.023Z,5.53
2022-11-20T02:08:06.403Z,5.70
2022-11-20T02:13:28.050Z,5.63
2022-11-20T02:18:32.193Z,5.30
2022-11-20T02:23:41.656Z,5.70
2022-11-20T02:28:46.357Z,5.23
2022-11-20T02:33:49.564Z,5.60
2022-11-20T02:38:52.823Z,5.30
2022-11-20T02:43:57.643Z,6.00
2022-11-20T02:49:01.057Z,5.63
2022-11-20T02:54:04.588Z,5.47
2022-11-20T02:59:09.433Z,5.50
2022-11-20T03:04:12.784Z,4.73
2022-11-20T03:09:16.018Z,5.50
2022-11-20T03:14:20.642Z,5.27
2022-11-20T03:19:24.206Z,5.10
2022-11-20T03:24:27.786Z,5.77
2022-11-20T03:29:33.465Z,5.20
2022-11-20T03:34:36.688Z,5.30
2022-11-20T03:39:39.979Z,5.20
2022-11-20T03:44:44.618Z,6.10
2022-11-20T03:49:47.856Z,5.63
2022-11-20T03:54:51.243Z,6.37
2022-11-20T03:59:56.048Z,5.87
2022-11-20T04:04:59.298Z,5.20
2022-11-20T04:10:02.639Z,4.90
2022-11-20T04:15:08.032Z,5.30
2022-11-20T04:20:11.868Z,4.57
2022-11-20T04:25:15.169Z,5.10
2022-11-20T04:30:20.046Z,5.63
2022-11-20T04:35:23.326Z,4.70
2022-11-20T04:40:26.614Z,4.90
2022-11-20T04:45:31.289Z,4.63
2022-11-20T04:50:34.497Z,5.73
2022-11-20T04:55:37.790Z,4.60
2022-11-20T05:00:42.641Z,5.00
2022-11-20T05:05:46.141Z,5.07
2022-11-20T05:10:49.371Z,4.27
2022-11-20T05:15:54.294Z,5.83
2022-11-20T05:20:58.831Z,6.33
2022-11-20T05:26:02.494Z,4.93
2022-11-20T05:31:11.759Z,5.43
2022-11-20T05:36:16.236Z,5.43
2022-11-20T05:41:21.427Z,5.43
2022-11-20T05:46:28.815Z,5.67
2022-11-20T05:51:32.752Z,5.07
2022-11-20T05:56:36.028Z,6.03
2022-11-20T06:01:40.701Z,5.20
2022-11-20T06:06:44.032Z,5.37
2022-11-20T06:11:47.271Z,4.93
2022-11-20T06:16:51.904Z,6.00
2022-11-20T06:21:55.169Z,6.70
2022-11-20T06:26:58.470Z,5.17
2022-11-20T06:32:03.289Z,5.33
2022-11-20T06:37:06.594Z,6.00
2022-11-20T06:42:10.043Z,5.90
2022-11-20T06:47:14.632Z,5.33
2022-11-20T06:52:17.922Z,5.70
2022-11-20T06:57:21.476Z,6.60
2022-11-20T07:02:26.080Z,6.80
2022-11-20T07:07:29.385Z,5.40
2022-11-20T07:12:32.659Z,5.53
2022-11-20T07:17:37.243Z,5.40
2022-11-20T07:22:40.782Z,5.50
2022-11-20T07:27:44.174Z,5.67
2022-11-20T07:32:52.714Z,5.23
2022-11-20T07:37:55.971Z,6.03
2022-11-20T07:42:59.242Z,5.83
2022-11-20T07:48:04.463Z,6.40
2022-11-20T07:53:08.320Z,5.77
2022-11-20T07:58:11.604Z,6.17
2022-11-20T08:03:19.157Z,6.80
2022-11-20T08:08:27.622Z,4.07
2022-11-20T08:13:56.470Z,5.50
2022-11-20T08:19:01.309Z,6.27
2022-11-20T08:24:05.312Z,5.90
2022-11-20T08:29:09.484Z,3.80
2022-11-20T08:34:18.804Z,6.13
2022-11-20T08:39:22.932Z,7.07
2022-11-20T08:44:26.559Z,6.77
2022-11-20T08:49:31.236Z,5.60
2022-11-20T08:54:34.531Z,5.87
2022-11-20T09:00:04.527Z,5.37
2022-11-20T09:05:03.262Z,5.40
2022-11-20T09:10:25.093Z,6.33
2022-11-20T09:15:28.632Z,5.70
2022-11-20T09:20:33.583Z,5.83
2022-11-20T09:25:36.937Z,5.87
2022-11-20T09:30:40.191Z,5.97
2022-11-20T09:35:45.668Z,6.87
2022-11-20T09:40:59.548Z,6.43
2022-11-20T09:46:12.063Z,6.00
2022-11-20T09:51:28.623Z,5.43
2022-11-20T09:56:32.452Z,6.77
2022-11-20T10:01:39.448Z,6.20
2022-11-20T10:06:59.735Z,6.20
2022-11-20T10:12:21.645Z,6.70
2022-11-20T10:17:56.718Z,6.20
2022-11-20T10:23:22.728Z,6.20
2022-11-20T10:28:45.905Z,6.03
2022-11-20T10:34:11.457Z,6.77
2022-11-20T10:39:25.455Z,5.60
2022-11-20T10:44:48.795Z,5.73
2022-11-20T10:49:57.527Z,6.50
2022-11-20T10:55:13.522Z,6.43
2022-11-20T11:00:18.185Z,6.33
2022-11-20T11:05:33.444Z,5.90
2022-11-20T11:10:47.189Z,6.17
2022-11-20T11:15:50.781Z,5.80
2022-11-20T11:20:55.453Z,5.63
2022-11-20T11:26:01.893Z,6.60
2022-11-20T11:31:05.349Z,4.97
2022-11-20T11:36:21.216Z,6.37
2022-11-20T11:41:32.650Z,6.27
2022-11-20T11:46:38.492Z,6.73
2022-11-20T11:51:52.501Z,5.87
2022-11-20T11:56:57.761Z,6.20
2022-11-20T12:02:07.202Z,6.40
2022-11-20T12:07:44.248Z,6.83
2022-11-20T12:12:45.667Z,6.77
2022-11-20T12:17:50.545Z,6.10
2022-11-20T12:23:02.024Z,6.47
2022-11-20T12:28:30.616Z,6.23
2022-11-20T12:33:57.150Z,6.33
2022-11-20T12:39:13.928Z,5.40
2022-11-20T12:44:56.243Z,6.33
2022-11-20T12:50:08.202Z,5.37
2022-11-20T12:55:27.502Z,5.87
2022-11-20T13:00:36.110Z,5.80
2022-11-20T13:05:50.135Z,6.27
2022-11-20T13:11:04.079Z,6.70
2022-11-20T13:16:16.500Z,7.03
2022-11-20T13:21:24.990Z,6.53
2022-11-20T13:26:29.508Z,6.63
2022-11-20T13:31:37.823Z,6.80
2022-11-20T13:36:53.557Z,6.27
2022-11-20T13:42:00.581Z,6.17
2022-11-20T13:47:07.498Z,6.33
2022-11-20T13:52:42.294Z,6.83
2022-11-20T13:58:03.144Z,5.83
2022-11-20T14:03:37.910Z,5.87
2022-11-20T14:08:49.099Z,6.70
2022-11-20T14:14:04.379Z,6.13
2022-11-20T14:19:29.029Z,5.83
2022-11-20T14:24:33.749Z,5.43
2022-11-20T14:29:40.421Z,5.13
2022-11-20T14:34:49.310Z,5.63
2022-11-20T14:39:54.703Z,6.93
2022-11-20T14:45:01.062Z,5.57
2022-11-20T14:50:15.985Z,6.33
2022-11-20T14:55:38.617Z,6.30
2022-11-20T15:00:42.803Z,5.17
2022-11-20T15:05:51.336Z,6.17
2022-11-20T15:10:56.624Z,5.90
2022-11-20T15:16:02.490Z,6.30
2022-11-20T15:21:15.729Z,6.17
2022-11-20T15:26:26.818Z,6.50
2022-11-20T15:31:33.139Z,7.50
2022-11-20T15:36:39.232Z,7.07
2022-11-20T15:41:43.958Z,7.20
2022-11-20T15:46:49.255Z,6.50
2022-11-20T15:51:56.750Z,7.30
2022-11-20T15:57:02.368Z,6.87
2022-11-20T16:02:15.856Z,7.70
2022-11-20T16:07:25.512Z,6.73
2022-11-20T16:12:47.766Z,8.00
2022-11-20T16:17:52.881Z,7.73
2022-11-20T16:22:58.984Z,8.03
2022-11-20T16:28:03.858Z,6.67
2022-11-20T16:33:13.944Z,7.77
2022-11-20T16:38:20.895Z,7.40
2022-11-20T16:43:28.038Z,6.67
2022-11-20T16:48:32.874Z,7.83
2022-11-20T16:53:39.077Z,7.87
2022-11-20T16:58:43.918Z,9.13
2022-11-20T17:03:52.277Z,8.00
2022-11-20T17:09:00.604Z,9.67
2022-11-20T17:14:08.108Z,8.93
2022-11-20T17:19:15.744Z,8.37
2022-11-20T17:24:24.369Z,8.50
2022-11-20T17:29:30.372Z,8.40
2022-11-20T17:34:35.482Z,8.37
2022-11-20T17:39:42.721Z,8.00
2022-11-20T17:44:49.200Z,8.23
2022-11-20T17:49:56.072Z,8.40
2022-11-20T17:55:04.680Z,8.00
2022-11-20T18:00:13.638Z,8.73
2022-11-20T18:05:18.603Z,9.20
2022-11-20T18:10:26.192Z,8.97
2022-11-20T18:15:35.470Z,10.20
2022-11-20T18:20:41.295Z,10.50
2022-11-20T18:25:48.240Z,11.07
2022-11-20T18:30:56.893Z,10.03
2022-11-20T18:36:10.339Z,9.57
2022-11-20T18:41:32.540Z,9.47
2022-11-20T18:46:38.289Z,8.07
2022-11-20T18:51:45.204Z,8.07
2022-11-20T18:56:51.540Z,7.70
2022-11-20T19:01:57.531Z,7.60
2022-11-20T19:07:04.938Z,7.87
2022-11-20T19:12:13.749Z,8.17
2022-11-20T19:17:20.533Z,7.07
2022-11-20T19:22:25.914Z,7.47
2022-11-20T19:27:36.302Z,6.57
2022-11-20T19:32:42.353Z,5.07
2022-11-20T19:37:49.731Z,4.83
2022-11-20T19:43:02.585Z,5.40
2022-11-20T19:48:09.127Z,5.23
2022-11-20T19:53:15.136Z,3.93
2022-11-20T19:58:22.867Z,4.60
2022-11-20T20:03:29.437Z,4.77
2022-11-20T20:08:36.712Z,6.13
2022-11-20T20:13:45.253Z,4.40
2022-11-20T20:18:50.371Z,5.00
2022-11-20T20:23:56.671Z,5.10
2022-11-20T20:29:03.902Z,5.47
2022-11-20T20:34:08.475Z,5.13
2022-11-20T20:39:14.976Z,4.87
2022-11-20T20:44:36.755Z,4.83
2022-11-20T20:49:44.662Z,3.63
2022-11-20T20:54:49.261Z,3.97
2022-11-20T20:59:56.435Z,4.83
2022-11-20T21:05:01.382Z,4.90
2022-11-20T21:10:06.167Z,4.03
2022-11-20T21:15:12.748Z,4.77
2022-11-20T21:20:30.969Z,5.47
2022-11-20T21:25:39.705Z,5.30
2022-11-20T21:30:44.779Z,5.63
2022-11-20T21:35:48.959Z,4.70
2022-11-20T21:40:52.475Z,5.03
2022-11-20T21:46:02.407Z,5.13
2022-11-20T21:51:07.987Z,5.33
2022-11-20T21:56:16.431Z,4.67
2022-11-20T22:01:27.143Z,5.53
2022-11-20T22:06:33.666Z,5.97
2022-11-20T22:11:37.273Z,5.20
2022-11-20T22:16:42.133Z,5.10
2022-11-20T22:21:45.483Z,4.87
2022-11-20T22:26:48.904Z,5.50
2022-11-20T22:31:54.756Z,4.70
2022-11-20T22:36:57.993Z,5.07
2022-11-20T22:42:01.308Z,5.07
2022-11-20T22:47:11.142Z,5.43
2022-11-20T22:52:14.665Z,4.80
2022-11-20T22:57:17.928Z,6.37
2022-11-20T23:02:22.686Z,5.23
2022-11-20T23:07:25.941Z,5.37
2022-11-20T23:12:29.441Z,5.77
2022-11-20T23:17:34.393Z,5.80
2022-11-20T23:22:37.623Z,5.97
2022-11-20T23:27:40.873Z,6.27
2022-11-20T23:32:45.505Z,5.87
2022-11-20T23:37:48.859Z,5.27
2022-11-20T23:43:09.470Z,5.37
2022-11-20T23:48:14.736Z,5.53
2022-11-20T23:53:18.752Z,4.67
2022-11-20T23:58:23.501Z,4.53
